Time;durP1;ratioP1;P1;durP2;ratioP2;P2;SDS_P1;SDS_P2;PMS_P1;PMS_P2;Temp;Humidity;BMP_temperature;BMP_pressure;BME280_temperature;BME280_humidity;BME280_pressure;Samples;Min_cycle;Max_cycle;Signal;HPM_P1;HPM_P2
2021/09/26 00:04:20;;;;;;;;;;;17.10;99.90;;;16.18;96.69;95875.22;10448364;28;2057;-79
2021/09/26 00:09:23;;;;;;;;;;;17.10;99.90;;;16.12;97.79;95854.75;10450906;28;2072;-79
2021/09/26 00:14:25;;;;;;;;;;;17.10;99.90;;;16.18;97.11;95867.09;10441879;28;2042;-79
2021/09/26 00:19:28;;;;;;;;;;;17.10;99.90;;;16.25;98.12;95855.03;10431796;28;1964;-79
2021/09/26 00:24:31;;;;;;;;;;;17.10;99.90;;;16.11;99.03;95855.88;10455437;28;1985;-81
2021/09/26 00:29:34;;;;;;;;;;;17.10;99.90;;;16.10;100.00;95875.97;10445448;28;2190;-80
2021/09/26 00:34:37;;;;;;;;;;;17.10;99.90;;;16.16;100.00;95880.16;10442804;28;1910;-80
2021/09/26 00:39:40;;;;;;;;;;;17.10;99.90;;;16.15;100.00;95875.84;10447566;28;2079;-81
2021/09/26 00:44:43;;;;;;;;;;;17.10;99.90;;;16.18;100.00;95872.53;10452705;28;2242;-81
2021/09/26 00:49:47;;;;;;;;;;;17.10;99.90;;;16.21;99.75;95861.03;10443930;28;2285;-80
2021/09/26 00:54:51;;;;;;;;;;;17.10;99.90;;;16.31;98.34;95864.66;10455881;28;2166;-80
2021/09/26 00:59:55;;;;;;;;;;;17.10;99.90;;;16.28;99.11;95849.78;10453662;28;2044;-80
2021/09/26 01:04:58;;;;;;;;;;;17.20;99.90;;;16.25;99.49;95853.13;10464122;28;2092;-81
2021/09/26 01:10:03;;;;;;;;;;;17.10;99.90;;;16.21;100.00;95854.81;10455577;28;2119;-80
2021/09/26 01:15:08;;;;;;;;;;;17.10;99.90;;;16.19;99.52;95863.28;10453581;28;2464;-80
2021/09/26 01:20:10;;;;;;;;;;;17.10;99.90;;;16.18;99.56;95871.72;10443955;28;2084;-80
2021/09/26 01:25:13;;;;;;;;;;;17.10;99.90;;;16.17;99.09;95870.94;10440921;28;2172;-80
2021/09/26 01:30:16;;;;;;;;;;;17.10;99.90;;;16.19;98.67;95868.69;10463239;28;2180;-80
2021/09/26 01:35:19;;;;;;;;;;;17.10;99.90;;;16.26;98.89;95870.19;10477419;28;1978;-79
2021/09/26 01:40:22;;;;;;;;;;;17.10;99.90;;;16.20;99.22;95870.28;10475201;28;2641;-79
2021/09/26 01:45:25;;;;;;;;;;;17.10;99.90;;;16.17;99.67;95881.78;10453343;28;2063;-79
2021/09/26 01:50:28;;;;;;;;;;;17.10;99.90;;;16.18;100.00;95877.94;10434646;28;2000;-80
2021/09/26 01:55:31;;;;;;;;;;;17.10;99.90;;;16.08;100.00;95878.16;10458636;28;2020;-79
2021/09/26 02:00:34;;;;;;;;;;;17.10;99.90;;;16.00;100.00;95881.63;10463228;28;2108;-80
2021/09/26 02:05:37;;;;;;;;;;;17.00;99.90;;;15.98;100.00;95875.69;10453661;28;2355;-80
2021/09/26 02:10:41;;;;;;;;;;;17.00;99.90;;;16.01;100.00;95875.06;10455641;28;2048;-81
2021/09/26 02:15:45;;;;;;;;;;;17.00;99.90;;;15.99;100.00;95871.88;10460473;28;2267;-81
2021/09/26 02:20:48;;;;;;;;;;;17.00;99.90;;;16.04;100.00;95874.47;10455352;28;2120;-81
2021/09/26 02:25:50;;;;;;;;;;;17.00;99.90;;;16.06;100.00;95879.59;10455820;28;2131;-81
2021/09/26 02:30:53;;;;;;;;;;;17.00;99.90;;;16.08;100.00;95872.75;10458353;28;2064;-81
2021/09/26 02:35:56;;;;;;;;;;;17.00;99.90;;;16.03;100.00;95870.16;10457133;28;2205;-81
2021/09/26 02:40:59;;;;;;;;;;;17.00;99.90;;;16.04;100.00;95866.34;10459097;28;2171;-81
2021/09/26 02:46:05;;;;;;;;;;;17.00;99.90;;;15.94;100.00;95866.56;10455731;28;2138;-81
2021/09/26 02:51:08;;;;;;;;;;;16.90;99.90;;;15.89;100.00;95861.25;10445194;28;2048;-80
2021/09/26 02:56:11;;;;;;;;;;;16.90;99.90;;;15.78;100.00;95862.59;10458604;28;2028;-81
2021/09/26 03:01:14;;;;;;;;;;;16.80;99.90;;;15.78;100.00;95857.97;10457638;28;2254;-80
2021/09/26 03:06:17;;;;;;;;;;;16.80;99.90;;;15.72;100.00;95861.09;10464788;28;2087;-80
2021/09/26 03:11:20;;;;;;;;;;;16.70;99.90;;;15.75;100.00;95863.19;10471165;28;2138;-79
2021/09/26 03:16:23;;;;;;;;;;;16.70;99.90;;;15.75;100.00;95863.19;10472504;28;2088;-78
2021/09/26 03:21:27;;;;;;;;;;;16.70;99.90;;;15.73;100.00;95860.00;10494172;28;1724;-78
2021/09/26 03:26:30;;;;;;;;;;;16.70;99.90;;;15.73;100.00;95854.56;10491812;28;2112;-79
2021/09/26 03:31:33;;;;;;;;;;;16.70;99.90;;;15.65;100.00;95859.59;10496944;28;1991;-79
2021/09/26 03:36:36;;;;;;;;;;;16.60;99.90;;;15.55;100.00;95843.53;10496546;28;2075;-79
2021/09/26 03:41:38;;;;;;;;;;;16.60;99.90;;;15.44;100.00;95844.84;10473595;28;2079;-79
2021/09/26 03:46:41;;;;;;;;;;;16.50;99.90;;;15.33;100.00;95846.97;10452953;28;2009;-80
2021/09/26 03:51:44;;;;;;;;;;;16.40;99.90;;;15.27;100.00;95836.50;10448755;28;2174;-79
2021/09/26 03:56:48;;;;;;;;;;;16.40;99.90;;;15.17;100.00;95828.59;10453830;28;2116;-79
2021/09/26 04:01:51;;;;;;;;;;;16.30;99.90;;;15.07;100.00;95824.19;10465804;28;2163;-80
2021/09/26 04:06:54;;;;;;;;;;;16.20;99.90;;;14.91;100.00;95834.50;10473697;28;1855;-79
2021/09/26 04:11:57;;;;;;;;;;;16.10;99.90;;;14.83;100.00;95825.19;10502729;28;2170;-79
2021/09/26 04:17:00;;;;;;;;;;;16.00;99.90;;;14.78;100.00;95830.69;10499605;28;2094;-79
2021/09/26 04:22:03;;;;;;;;;;;15.90;99.90;;;14.76;100.00;95823.94;10478610;28;1945;-80
2021/09/26 04:27:06;;;;;;;;;;;15.90;99.90;;;14.67;100.00;95828.47;10456154;28;2138;-80
2021/09/26 04:32:09;;;;;;;;;;;15.80;99.90;;;14.59;100.00;95828.03;10456721;28;2123;-80
2021/09/26 04:37:12;;;;;;;;;;;15.80;99.90;;;14.60;100.00;95824.25;10471523;28;2258;-80
2021/09/26 04:42:14;;;;;;;;;;;15.70;99.90;;;14.59;100.00;95816.44;10475634;28;2021;-80
2021/09/26 04:47:17;;;;;;;;;;;15.70;99.90;;;14.51;100.00;95809.81;10479520;28;2175;-80
2021/09/26 04:52:20;;;;;;;;;;;15.70;99.90;;;14.36;100.00;95811.91;10474377;28;1900;-80
2021/09/26 04:57:23;;;;;;;;;;;15.60;99.90;;;14.38;100.00;95799.72;10453316;28;2153;-80
2021/09/26 05:02:26;;;;;;;;;;;15.50;99.90;;;14.26;100.00;95808.31;10442547;28;2376;-80
2021/09/26 05:07:29;;;;;;;;;;;15.40;99.90;;;14.24;100.00;95806.97;10477896;28;2302;-80
2021/09/26 05:12:32;;;;;;;;;;;15.40;99.90;;;14.29;100.00;95799.59;10461832;28;2112;-80
2021/09/26 05:17:35;;;;;;;;;;;15.40;99.90;;;14.38;100.00;95802.44;10458304;28;2196;-80
2021/09/26 05:22:38;;;;;;;;;;;15.40;99.90;;;14.38;100.00;95815.97;10459739;28;2079;-78
2021/09/26 05:27:41;;;;;;;;;;;15.40;99.90;;;14.47;100.00;95813.38;10454288;28;2151;-79
2021/09/26 05:32:43;;;;;;;;;;;15.50;99.90;;;14.67;100.00;95823.03;10451066;28;2111;-80
2021/09/26 05:37:46;;;;;;;;;;;15.60;99.90;;;14.91;100.00;95807.44;10473871;28;1656;-78
2021/09/26 05:42:49;;;;;;;;;;;15.70;99.90;;;15.31;100.00;95826.69;10459317;28;1993;-80
2021/09/26 05:47:52;;;;;;;;;;;16.00;99.90;;;15.66;100.00;95817.06;10453303;28;2096;-80
2021/09/26 05:52:55;;;;;;;;;;;16.30;99.90;;;15.92;100.00;95815.38;10456704;28;2172;-80
2021/09/26 05:57:58;;;;;;;;;;;16.60;99.90;;;16.06;100.00;95814.50;10456445;28;1912;-80
2021/09/26 06:03:01;;;;;;;;;;;16.80;99.90;;;16.14;99.06;95809.16;10433705;28;2066;-78
2021/09/26 06:08:04;;;;;;;;;;;16.90;99.90;;;16.25;98.09;95800.78;10450143;28;1930;-76
2021/09/26 06:13:07;;;;;;;;;;;17.10;99.90;;;16.27;97.85;95803.97;10445885;28;1891;-77
2021/09/26 06:18:10;;;;;;;;;;;17.10;99.90;;;16.38;97.32;95827.03;10426329;28;1828;-76
2021/09/26 06:23:13;;;;;;;;;;;17.20;99.90;;;16.55;95.25;95826.34;10449737;28;1746;-77
2021/09/26 06:28:16;;;;;;;;;;;17.30;99.90;;;16.51;95.55;95822.66;10450034;28;2124;-76
2021/09/26 06:33:18;;;;;;;;;;;17.40;99.90;;;16.51;95.34;95826.16;10466626;28;1911;-77
2021/09/26 06:38:21;;;;;;;;;;;17.40;99.90;;;16.58;94.95;95825.72;10451697;28;2007;-77
2021/09/26 06:43:24;;;;;;;;;;;17.40;99.90;;;16.78;93.43;95840.72;10450421;28;1786;-77
2021/09/26 06:48:27;;;;;;;;;;;17.50;99.90;;;17.09;91.08;95836.06;10442693;28;2320;-77
2021/09/26 06:53:30;;;;;;;;;;;17.60;99.90;;;17.24;89.60;95832.94;10443989;28;2064;-77
2021/09/26 06:58:33;;;;;;;;;;;17.90;99.90;;;17.44;88.54;95830.78;10450936;28;1820;-77
2021/09/26 07:03:36;;;;;;;;;;;18.10;99.90;;;17.49;86.86;95833.31;10439311;28;1931;-76
2021/09/26 07:08:39;;;;;;;;;;;18.20;99.90;;;17.49;86.28;95836.84;10449536;28;1872;-76
2021/09/26 07:13:42;;;;;;;;;;;18.30;99.90;;;17.75;85.80;95828.78;10437082;28;2131;-76
2021/09/26 07:18:45;;;;;;;;;;;18.50;99.90;;;17.68;84.42;95814.81;10428746;28;1996;-76
2021/09/26 07:23:48;;;;;;;;;;;18.50;99.90;;;17.66;85.26;95811.63;10432163;28;2040;-76
2021/09/26 07:28:53;;;;;;;;;;;18.60;99.90;;;17.81;83.77;95808.50;10431991;28;1849;-76
2021/09/26 07:33:56;;;;;;;;;;;18.60;99.90;;;18.11;82.05;95803.19;10446566;28;1906;-76
2021/09/26 07:38:59;;;;;;;;;;;18.70;99.90;;;18.34;81.02;95793.75;10448821;28;2116;-77
2021/09/26 07:44:02;;;;;;;;;;;19.00;99.90;;;18.69;78.87;95804.59;10432212;28;1722;-77
2021/09/26 07:49:05;;;;;;;;;;;19.20;99.90;;;19.06;75.78;95802.22;10425916;28;2325;-78
2021/09/26 07:54:08;;;;;;;;;;;19.50;99.90;;;19.32;75.26;95802.09;10446295;28;2188;-77
2021/09/26 07:59:11;;;;;;;;;;;19.80;99.90;;;19.60;73.60;95807.94;10438148;28;2296;-78
2021/09/26 08:04:15;;;;;;;;;;;20.00;99.90;;;19.91;70.27;95802.91;10431315;28;2353;-78
2021/09/26 08:09:17;;;;;;;;;;;20.40;99.90;;;20.03;70.32;95791.22;10456343;28;2021;-77
2021/09/26 08:14:20;;;;;;;;;;;20.60;99.90;;;20.26;67.97;95794.41;10451480;28;1919;-78
2021/09/26 08:19:23;;;;;;;;;;;20.80;99.90;;;20.39;66.15;95787.06;10449614;28;2072;-77
2021/09/26 08:24:27;;;;;;;;;;;21.00;99.90;;;20.44;65.99;95795.84;10445263;28;1970;-78
2021/09/26 08:29:30;;;;;;;;;;;21.20;99.90;;;20.45;65.71;95781.09;10437268;28;2065;-79
2021/09/26 08:34:33;;;;;;;;;;;21.30;99.90;;;20.94;64.65;95781.22;10448680;28;2053;-77
2021/09/26 08:39:36;;;;;;;;;;;21.40;99.90;;;20.83;64.53;95784.72;10449240;28;2128;-79
2021/09/26 08:44:38;;;;;;;;;;;21.60;99.90;;;21.18;63.63;95793.28;10455678;28;2060;-79
2021/09/26 08:49:41;;;;;;;;;;;21.80;99.90;;;21.49;61.30;95796.28;10454071;28;1974;-79
2021/09/26 08:54:44;;;;;;;;;;;22.00;99.90;;;22.23;59.82;95801.66;10459492;28;2104;-79
2021/09/26 08:59:47;;;;;;;;;;;22.50;99.90;;;23.06;56.21;95806.28;10440113;28;2012;-78
2021/09/26 09:04:50;;;;;;;;;;;23.10;99.90;;;23.83;52.91;95797.56;10454766;28;2390;-80
2021/09/26 09:09:53;;;;;;;;;;;23.80;99.90;;;23.99;53.32;95800.28;10445668;28;1978;-78
2021/09/26 09:14:56;;;;;;;;;;;24.30;99.90;;;23.87;52.91;95806.69;10475250;28;2014;-77
2021/09/26 09:19:59;;;;;;;;;;;24.50;99.90;;;24.22;52.50;95806.66;10457620;28;2086;-79
2021/09/26 09:25:02;;;;;;;;;;;24.60;99.90;;;24.46;51.69;95793.84;10464169;28;2095;-78
2021/09/26 09:30:05;;;;;;;;;;;24.80;99.90;;;24.18;51.07;95805.81;10451522;28;2249;-80
2021/09/26 09:35:07;;;;;;;;;;;24.80;99.90;;;24.36;49.60;95799.91;10446427;28;1979;-78
2021/09/26 09:40:10;;;;;;;;;;;24.80;99.90;;;24.30;48.86;95804.06;10434895;28;1975;-78
2021/09/26 09:45:13;;;;;;;;;;;25.00;99.90;;;24.33;48.59;95797.84;10439333;28;2145;-78
2021/09/26 09:50:16;;;;;;;;;;;25.00;99.90;;;24.06;47.82;95808.69;10456285;28;2469;-79
2021/09/26 09:55:19;;;;;;;;;;;25.00;99.90;;;24.30;47.79;95806.81;10458699;28;2162;-82
2021/09/26 10:00:22;;;;;;;;;;;25.00;99.90;;;24.76;47.34;95800.31;10460702;28;1241;-81
2021/09/26 10:05:25;;;;;;;;;;;25.20;99.90;;;24.91;46.75;95797.81;10456697;28;2049;-80
2021/09/26 10:10:28;;;;;;;;;;;25.50;99.90;;;24.54;47.66;95801.84;10457742;28;1806;-81
2021/09/26 10:15:31;;;;;;;;;;;25.40;99.90;;;24.77;46.18;95812.09;10437890;28;2074;-80
2021/09/26 10:20:34;;;;;;;;;;;25.40;99.90;;;24.70;45.75;95815.50;10446476;28;2080;-80
2021/09/26 10:25:37;;;;;;;;;;;25.40;99.90;;;24.66;45.92;95820.13;10468024;28;1964;-79
2021/09/26 10:30:42;;;;;;;;;;;25.40;99.90;;;25.04;46.87;95826.75;10446157;28;2019;-80
2021/09/26 10:35:46;;;;;;;;;;;25.50;99.90;;;25.00;46.00;95828.63;10455191;28;1964;-80
2021/09/26 10:40:49;;;;;;;;;;;25.60;99.90;;;24.72;46.27;95824.19;10430833;28;2035;-80
2021/09/26 10:45:52;;;;;;;;;;;25.60;99.90;;;25.24;46.74;95814.56;10433174;28;2016;-81
2021/09/26 10:50:55;;;;;;;;;;;25.70;99.90;;;25.65;46.01;95809.31;10456790;28;2100;-82
2021/09/26 10:55:57;;;;;;;;;;;25.90;99.90;;;25.42;46.69;95814.06;10440100;28;1990;-81
2021/09/26 11:01:02;;;;;;;;;;;26.00;99.90;;;25.31;44.90;95798.16;10441798;28;1793;-80
2021/09/26 11:06:07;;;;;;;;;;;26.10;99.90;;;25.39;46.37;95798.31;10456282;28;1769;-81
2021/09/26 11:11:10;;;;;;;;;;;26.00;99.90;;;25.31;45.85;95803.66;10460570;28;2149;-80
2021/09/26 11:16:16;;;;;;;;;;;25.90;99.90;;;25.20;45.44;95805.47;10453375;28;2288;-81
2021/09/26 11:21:22;;;;;;;;;;;25.90;99.90;;;24.94;44.17;95789.66;10438623;28;1785;-76
2021/09/26 11:26:25;;;;;;;;;;;25.80;99.90;;;25.00;45.20;95784.63;10442135;28;2056;-78
2021/09/26 11:31:28;;;;;;;;;;;25.80;99.90;;;24.82;44.25;95780.78;10437780;28;1927;-79
2021/09/26 11:36:31;;;;;;;;;;;25.70;99.90;;;25.04;44.98;95780.00;10455595;28;2025;-79
2021/09/26 11:41:34;;;;;;;;;;;25.60;99.90;;;25.00;46.20;95766.19;10439953;28;1872;-79
2021/09/26 11:46:36;;;;;;;;;;;25.60;99.90;;;24.58;45.99;95757.97;10436303;28;2076;-79
2021/09/26 11:51:39;;;;;;;;;;;25.50;99.90;;;24.44;47.04;95746.72;10460069;28;2021;-78
2021/09/26 11:56:42;;;;;;;;;;;25.30;99.90;;;24.08;46.58;95734.97;10451793;28;2224;-78
2021/09/26 12:01:45;;;;;;;;;;;25.10;99.90;;;24.11;47.94;95738.94;10444134;28;2041;-80
2021/09/26 12:06:48;;;;;;;;;;;25.00;99.90;;;24.37;46.77;95738.34;10450956;28;2017;-80
2021/09/26 12:11:51;;;;;;;;;;;25.10;99.90;;;24.12;47.10;95741.34;10441157;28;2006;-80
2021/09/26 12:16:54;;;;;;;;;;;25.00;99.90;;;24.17;48.49;95732.78;10441115;28;1918;-80
2021/09/26 12:21:57;;;;;;;;;;;24.90;99.90;;;24.02;52.07;95730.94;10456244;28;2005;-78
2021/09/26 12:27:00;;;;;;;;;;;24.90;99.90;;;23.81;53.18;95735.97;10450257;28;1886;-79
2021/09/26 12:32:03;;;;;;;;;;;24.70;99.90;;;24.02;52.37;95735.63;10455428;28;2029;-80
2021/09/26 12:37:06;;;;;;;;;;;24.80;99.90;;;24.05;53.90;95740.38;10440431;28;2055;-79
2021/09/26 12:42:09;;;;;;;;;;;24.80;99.90;;;23.87;54.21;95738.06;10461035;28;2014;-80
2021/09/26 12:47:12;;;;;;;;;;;24.80;99.90;;;24.30;53.97;95736.19;10446588;28;1851;-79
2021/09/26 12:52:15;;;;;;;;;;;24.80;99.90;;;24.54;52.60;95746.09;10456345;28;2178;-79
2021/09/26 12:57:18;;;;;;;;;;;25.10;99.90;;;24.82;52.46;95743.09;10466455;28;1975;-79
2021/09/26 13:02:20;;;;;;;;;;;25.30;99.90;;;25.20;51.38;95741.41;10485020;28;2129;-79
2021/09/26 13:07:23;;;;;;;;;;;25.50;99.90;;;25.25;51.11;95741.06;10478793;28;1983;-79
2021/09/26 13:12:26;;;;;;;;;;;25.70;99.90;;;24.85;51.98;95734.09;10466132;28;2030;-79
2021/09/26 13:17:29;;;;;;;;;;;25.60;99.90;;;24.50;52.98;95723.28;10459217;28;2046;-78
2021/09/26 13:22:32;;;;;;;;;;;25.50;99.90;;;24.92;52.07;95716.94;10455830;28;1809;-78
2021/09/26 13:27:37;;;;;;;;;;;25.40;99.90;;;24.52;52.71;95734.69;10471612;28;1974;-80
2021/09/26 13:32:40;;;;;;;;;;;25.40;99.90;;;24.73;51.00;95728.78;10445814;28;1920;-78
2021/09/26 13:37:44;;;;;;;;;;;25.30;99.90;;;24.46;52.08;95714.16;10461543;28;2080;-79
2021/09/26 13:42:47;;;;;;;;;;;25.20;99.90;;;24.42;52.11;95703.09;10448805;28;2074;-78
2021/09/26 13:47:50;;;;;;;;;;;25.20;99.90;;;24.31;52.30;95693.06;10445445;28;1972;-79
2021/09/26 13:52:52;;;;;;;;;;;25.10;99.90;;;24.42;51.19;95689.34;10448357;28;2063;-79
2021/09/26 13:57:55;;;;;;;;;;;25.30;99.90;;;24.82;50.78;95695.56;10457852;28;1922;-78
2021/09/26 14:02:58;;;;;;;;;;;25.30;99.90;;;24.74;51.21;95692.66;10434143;28;2045;-78
2021/09/26 14:08:01;;;;;;;;;;;25.40;99.90;;;24.52;51.38;95671.47;10456547;28;2093;-80
2021/09/26 14:13:04;;;;;;;;;;;25.50;99.90;;;24.64;51.49;95679.56;10454809;28;2098;-77
2021/09/26 14:18:07;;;;;;;;;;;25.40;99.90;;;24.77;51.07;95683.69;10445262;28;2023;-78
2021/09/26 14:23:10;;;;;;;;;;;25.40;99.90;;;24.99;50.75;95673.03;10452026;28;1857;-77
2021/09/26 14:28:13;;;;;;;;;;;25.50;99.90;;;24.65;52.23;95661.09;10446796;28;2352;-78
2021/09/26 14:33:16;;;;;;;;;;;25.40;99.90;;;24.17;52.93;95666.88;10465450;28;2065;-79
2021/09/26 14:38:19;;;;;;;;;;;25.20;99.90;;;23.99;55.08;95674.00;10444452;28;2067;-79
2021/09/26 14:43:22;;;;;;;;;;;25.00;99.90;;;23.88;57.46;95667.50;10442956;28;2021;-79
2021/09/26 14:48:24;;;;;;;;;;;24.70;99.90;;;24.07;57.54;95672.19;10450039;28;1872;-79
2021/09/26 14:53:27;;;;;;;;;;;24.70;99.90;;;24.12;57.92;95680.94;10470378;28;2029;-78
2021/09/26 14:58:30;;;;;;;;;;;24.70;99.90;;;24.24;57.35;95682.72;10463037;28;2022;-78
2021/09/26 15:03:33;;;;;;;;;;;24.90;99.90;;;23.81;56.82;95686.56;10449999;28;2040;-78
2021/09/26 15:08:46;;;;;;;;;;;24.70;99.90;;;23.73;59.21;95674.66;10445948;28;1692;-78
2021/09/26 15:13:49;;;;;;;;;;;24.60;99.90;;;23.49;59.46;95675.69;10457050;28;2001;-78
2021/09/26 15:18:52;;;;;;;;;;;24.40;99.90;;;23.25;59.01;95682.19;10462418;28;2068;-78
2021/09/26 15:23:55;;;;;;;;;;;24.20;99.90;;;23.01;59.74;95687.88;10444256;28;2033;-78
2021/09/26 15:28:58;;;;;;;;;;;24.00;99.90;;;23.12;59.42;95694.41;10460109;28;2053;-79
2021/09/26 15:34:01;;;;;;;;;;;23.90;99.90;;;23.07;59.42;95697.44;10448694;28;2018;-79
2021/09/26 15:39:03;;;;;;;;;;;23.90;99.90;;;23.14;59.40;95687.41;10439030;28;2106;-79
2021/09/26 15:44:06;;;;;;;;;;;23.90;99.90;;;23.05;59.85;95686.81;10440445;28;2035;-78
2021/09/26 15:49:09;;;;;;;;;;;23.90;99.90;;;23.01;59.71;95691.41;10459511;28;2135;-78
2021/09/26 15:54:12;;;;;;;;;;;23.90;99.90;;;23.07;59.95;95691.94;10471162;28;1975;-80
2021/09/26 15:59:15;;;;;;;;;;;23.80;99.90;;;22.77;60.88;95691.56;10468913;28;2198;-80
2021/09/26 16:04:18;;;;;;;;;;;23.80;99.90;;;22.65;61.14;95670.56;10465688;28;2145;-77
2021/09/26 16:09:21;;;;;;;;;;;23.60;99.90;;;22.53;62.09;95671.44;10461117;28;2144;-79
2021/09/26 16:14:24;;;;;;;;;;;23.50;99.90;;;22.47;62.36;95681.06;10458800;28;1969;-79
2021/09/26 16:19:27;;;;;;;;;;;23.40;99.90;;;22.33;62.53;95677.94;10464428;28;2124;-80
2021/09/26 16:24:30;;;;;;;;;;;23.30;99.90;;;22.34;62.95;95685.81;10457415;28;2049;-79
2021/09/26 16:29:33;;;;;;;;;;;23.20;99.90;;;22.11;63.59;95682.84;10456019;28;2005;-79
2021/09/26 16:34:36;;;;;;;;;;;23.00;99.90;;;21.99;63.97;95679.34;10469282;28;1984;-78
2021/09/26 16:39:39;;;;;;;;;;;23.00;99.90;;;21.81;65.83;95670.63;10465650;28;1982;-79
2021/09/26 16:44:42;;;;;;;;;;;22.80;99.90;;;21.52;67.31;95683.50;10469994;28;2108;-79
2021/09/26 16:49:45;;;;;;;;;;;22.60;99.90;;;21.22;68.00;95687.59;10455387;28;2092;-78
2021/09/26 16:54:47;;;;;;;;;;;22.40;99.90;;;20.85;64.88;95679.41;10462881;28;2076;-78
2021/09/26 16:59:50;;;;;;;;;;;22.00;99.90;;;20.49;65.03;95681.00;10462653;28;2383;-79
2021/09/26 17:04:53;;;;;;;;;;;21.60;99.90;;;20.38;63.65;95679.81;10457482;28;2053;-78
2021/09/26 17:09:56;;;;;;;;;;;21.40;99.90;;;20.28;63.38;95682.97;10449684;28;1868;-78
2021/09/26 17:14:59;;;;;;;;;;;21.30;99.90;;;20.22;63.37;95695.22;10445157;28;2032;-79
2021/09/26 17:20:02;;;;;;;;;;;21.20;99.90;;;20.04;63.94;95694.63;10449520;28;2072;-80
2021/09/26 17:25:06;;;;;;;;;;;21.10;99.90;;;20.03;63.95;95694.94;10498507;28;1805;-80
2021/09/26 17:30:10;;;;;;;;;;;21.00;99.90;;;19.86;64.22;95683.06;10489257;28;1777;-80
2021/09/26 17:35:13;;;;;;;;;;;20.90;99.90;;;19.73;65.09;95684.16;10491692;28;1886;-79
2021/09/26 17:40:16;;;;;;;;;;;20.80;99.90;;;19.63;65.15;95696.25;10503074;28;1943;-80
2021/09/26 17:45:19;;;;;;;;;;;20.70;99.90;;;19.52;66.03;95688.78;10478126;28;2476;-78
2021/09/26 17:50:22;;;;;;;;;;;20.60;99.90;;;19.45;65.87;95701.00;10452836;28;1876;-79
2021/09/26 17:55:25;;;;;;;;;;;20.50;99.90;;;19.35;66.64;95690.50;10458579;28;2084;-78
2021/09/26 18:00:28;;;;;;;;;;;20.40;99.90;;;19.27;67.25;95696.78;10469409;28;1802;-78
2021/09/26 18:05:31;;;;;;;;;;;20.30;99.90;;;19.31;67.23;95692.28;10473044;28;1930;-78
2021/09/26 18:10:33;;;;;;;;;;;20.30;99.90;;;19.35;67.41;95690.50;10459249;28;1946;-76
2021/09/26 18:15:36;;;;;;;;;;;20.30;99.90;;;19.21;68.37;95689.94;10460865;28;2060;-79
2021/09/26 18:20:39;;;;;;;;;;;20.20;99.90;;;19.18;68.62;95696.06;10488999;28;1928;-78
2021/09/26 18:25:42;;;;;;;;;;;20.20;99.90;;;19.01;69.80;95698.88;10491006;28;1836;-81
2021/09/26 18:30:45;;;;;;;;;;;20.00;99.90;;;18.81;72.15;95701.22;10496164;28;1997;-80
2021/09/26 18:35:48;;;;;;;;;;;20.00;99.90;;;18.59;75.32;95707.72;10491894;28;2076;-78
2021/09/26 18:40:51;;;;;;;;;;;19.70;99.90;;;18.26;79.82;95712.94;10465904;28;1736;-79
2021/09/26 18:45:54;;;;;;;;;;;19.50;99.90;;;17.86;85.51;95715.06;10458211;28;2033;-80
2021/09/26 18:50:57;;;;;;;;;;;19.10;99.90;;;17.51;85.72;95730.56;10468933;28;1895;-80
2021/09/26 18:56:00;;;;;;;;;;;18.70;99.90;;;17.32;89.94;95722.69;10480546;28;2033;-79
2021/09/26 19:01:03;;;;;;;;;;;18.50;99.90;;;17.40;86.25;95731.97;10487209;28;2056;-80
2021/09/26 19:06:06;;;;;;;;;;;18.40;99.90;;;17.49;86.36;95746.34;10459948;28;2196;-80
2021/09/26 19:11:11;;;;;;;;;;;18.40;99.90;;;17.53;87.03;95752.75;10484363;28;1817;-82
2021/09/26 19:16:17;;;;;;;;;;;18.50;99.90;;;17.53;87.62;95747.34;10489129;28;2299;-82
2021/09/26 19:21:21;;;;;;;;;;;18.50;99.90;;;17.49;88.86;95757.22;10479326;28;1903;-81
2021/09/26 19:26:24;;;;;;;;;;;18.50;99.90;;;17.46;90.71;95760.59;10470591;28;2084;-80
2021/09/26 19:31:27;;;;;;;;;;;18.40;99.90;;;17.41;91.80;95766.97;10478254;28;2077;-81
2021/09/26 19:36:30;;;;;;;;;;;18.40;99.90;;;17.34;93.21;95780.22;10477859;28;1909;-82
2021/09/26 19:41:32;;;;;;;;;;;18.30;99.90;;;17.18;96.78;95796.19;10480961;28;1809;-80
2021/09/26 19:46:36;;;;;;;;;;;18.30;99.90;;;16.99;100.00;95798.34;10475394;28;1986;-80
2021/09/26 19:51:39;;;;;;;;;;;18.10;99.90;;;16.70;100.00;95796.94;10472037;28;1963;-78
2021/09/26 19:56:42;;;;;;;;;;;17.90;99.90;;;16.46;100.00;95791.00;10476668;28;2041;-78
2021/09/26 20:01:45;;;;;;;;;;;17.60;99.90;;;16.24;100.00;95794.56;10492016;28;1867;-78
2021/09/26 20:06:48;;;;;;;;;;;17.30;99.90;;;16.08;100.00;95793.31;10494639;28;1918;-81
2021/09/26 20:11:54;;;;;;;;;;;17.10;99.90;;;15.88;100.00;95802.72;10492116;28;1749;-79
2021/09/26 20:16:56;;;;;;;;;;;16.90;99.90;;;15.84;100.00;95804.44;10491908;28;1886;-79
2021/09/26 20:21:59;;;;;;;;;;;16.80;99.90;;;15.70;100.00;95806.38;10480445;28;1904;-79
2021/09/26 20:27:02;;;;;;;;;;;16.70;99.90;;;15.67;100.00;95813.22;10492490;28;1894;-78
2021/09/26 20:32:05;;;;;;;;;;;16.60;99.90;;;15.64;100.00;95820.03;10469926;28;1863;-78
2021/09/26 20:37:08;;;;;;;;;;;16.60;99.90;;;15.65;100.00;95839.84;10464209;28;1995;-76
2021/09/26 20:42:11;;;;;;;;;;;16.60;99.90;;;15.65;100.00;95845.25;10498641;28;1766;-79
2021/09/26 20:47:14;;;;;;;;;;;16.50;99.90;;;15.61;100.00;95853.16;10482264;28;2261;-79
2021/09/26 20:52:17;;;;;;;;;;;16.50;99.90;;;15.33;100.00;95852.38;10506698;28;1812;-79
2021/09/26 20:57:19;;;;;;;;;;;16.40;99.90;;;15.09;100.00;95873.44;10486983;28;2032;-80
2021/09/26 21:02:22;;;;;;;;;;;16.10;99.90;;;14.97;100.00;95883.94;10500137;28;1821;-81
2021/09/26 21:07:25;;;;;;;;;;;15.90;99.90;;;14.89;100.00;95896.25;10503001;28;2081;-81
2021/09/26 21:12:28;;;;;;;;;;;15.80;99.90;;;14.77;100.00;95898.63;10495157;28;2216;-81
2021/09/26 21:17:32;;;;;;;;;;;15.80;99.90;;;14.69;100.00;95900.09;10470447;28;1910;-80
2021/09/26 21:22:35;;;;;;;;;;;15.70;99.90;;;14.56;100.00;95903.56;10473138;28;1599;-79
2021/09/26 21:27:38;;;;;;;;;;;15.60;99.90;;;14.54;100.00;95922.81;10473370;28;2019;-81
2021/09/26 21:32:41;;;;;;;;;;;15.50;99.90;;;14.44;100.00;95928.34;10484646;28;1965;-81
2021/09/26 21:37:44;;;;;;;;;;;15.40;99.90;;;14.46;100.00;95936.16;10498465;28;2053;-79
2021/09/26 21:42:47;;;;;;;;;;;15.40;99.90;;;14.36;100.00;95937.13;10505754;28;1951;-78
2021/09/26 21:47:50;;;;;;;;;;;15.30;99.90;;;14.38;100.00;95928.69;10488563;28;2057;-80
2021/09/26 21:52:53;;;;;;;;;;;15.30;99.90;;;14.29;100.00;95926.66;10461208;28;2039;-81
2021/09/26 21:57:56;;;;;;;;;;;15.20;99.90;;;14.22;100.00;95909.22;10465783;28;2095;-78
2021/09/26 22:02:58;;;;;;;;;;;15.10;99.90;;;14.20;100.00;95912.22;10475705;28;1825;-79
2021/09/26 22:08:01;;;;;;;;;;;15.10;99.90;;;14.15;100.00;95909.59;10478736;28;1954;-81
2021/09/26 22:13:04;;;;;;;;;;;15.00;99.90;;;14.12;100.00;95915.56;10476966;28;2003;-79
2021/09/26 22:18:10;;;;;;;;;;;15.00;99.90;;;14.11;100.00;95915.84;10472261;28;2037;-81
2021/09/26 22:23:23;;;;;;;;;;;15.00;99.90;;;14.15;100.00;95930.41;10458906;28;2025;-80
2021/09/26 22:28:26;;;;;;;;;;;15.00;99.90;;;14.16;100.00;95922.00;10487219;28;1807;-81
2021/09/26 22:33:48;;;;;;;;;;;15.00;99.90;;;14.19;100.00;95917.94;10475276;28;2116;-79
2021/09/26 22:38:52;;;;;;;;;;;15.00;99.90;;;14.26;100.00;95915.66;10500419;28;1962;-80
2021/09/26 22:43:55;;;;;;;;;;;15.10;99.90;;;14.26;100.00;95921.06;10486364;28;1909;-79
2021/09/26 22:48:58;;;;;;;;;;;15.10;99.90;;;14.27;100.00;95926.16;10465841;28;2095;-81
2021/09/26 22:54:00;;;;;;;;;;;15.10;99.90;;;14.28;100.00;95926.97;10484604;28;1865;-81
2021/09/26 22:59:03;;;;;;;;;;;15.10;99.90;;;14.25;100.00;95924.84;10489693;28;1898;-82
2021/09/26 23:04:06;;;;;;;;;;;15.20;99.90;;;14.28;100.00;95930.47;10478990;28;2080;-82
2021/09/26 23:09:09;;;;;;;;;;;15.10;99.90;;;14.31;100.00;95934.47;10480849;28;2014;-82